Time;durP1;ratioP1;P1;durP2;ratioP2;P2;SDS_P1;SDS_P2;PMS_P1;PMS_P2;Temp;Humidity;BMP_temperature;BMP_pressure;BME280_temperature;BME280_humidity;BME280_pressure;Samples;Min_cycle;Max_cycle;Signal;HPM_P1;HPM_P2
2022/08/07 00:01:04;;;;;;;0.90;0.90;;;13.30;99.90;;;;;;7374479;19;20316;-74
2022/08/07 00:03:29;;;;;;;0.83;0.83;;;13.30;99.90;;;;;;7370364;19;20374;-74
2022/08/07 00:05:55;;;;;;;1.00;1.00;;;13.30;99.90;;;;;;7368957;19;20332;-74
2022/08/07 00:08:24;;;;;;;0.90;0.90;;;13.30;99.90;;;;;;7368665;19;20333;-74
2022/08/07 00:10:49;;;;;;;0.70;0.70;;;13.20;99.90;;;;;;7370639;19;20337;-74
2022/08/07 00:13:15;;;;;;;0.80;0.80;;;13.20;99.90;;;;;;7372593;19;20348;-74
2022/08/07 00:15:41;;;;;;;1.02;1.02;;;13.10;99.90;;;;;;7367713;19;21197;-74
2022/08/07 00:18:08;;;;;;;1.40;0.90;;;13.10;99.90;;;;;;7371566;19;20359;-74
2022/08/07 00:20:34;;;;;;;0.85;0.85;;;13.10;99.90;;;;;;7374842;19;20308;-74
2022/08/07 00:23:00;;;;;;;0.90;0.90;;;13.10;99.90;;;;;;7370242;19;20304;-74
2022/08/07 00:25:26;;;;;;;1.20;1.10;;;13.00;99.90;;;;;;7377389;19;20329;-74
2022/08/07 00:27:51;;;;;;;0.90;0.90;;;13.00;99.90;;;;;;7372112;19;20370;-74
2022/08/07 00:30:17;;;;;;;1.93;0.90;;;12.90;99.90;;;;;;7370457;19;20655;-74
2022/08/07 00:32:46;;;;;;;0.80;0.80;;;12.80;99.90;;;;;;7375481;19;20393;-74
2022/08/07 00:35:11;;;;;;;1.17;1.00;;;12.80;99.90;;;;;;7372383;19;20314;-74
2022/08/07 00:37:37;;;;;;;0.90;0.90;;;12.80;99.90;;;;;;7374291;19;20866;-74
2022/08/07 00:40:03;;;;;;;2.07;1.07;;;12.70;99.90;;;;;;7376812;19;20293;-74
2022/08/07 00:42:29;;;;;;;1.10;1.00;;;12.50;99.90;;;;;;7373240;19;20316;-73
2022/08/07 00:44:54;;;;;;;0.90;0.90;;;12.60;99.90;;;;;;7370072;19;20328;-73
2022/08/07 00:47:20;;;;;;;0.90;0.90;;;12.60;99.90;;;;;;7372740;19;20312;-74
2022/08/07 00:49:46;;;;;;;0.90;0.90;;;12.50;99.90;;;;;;7374775;19;20463;-74
2022/08/07 00:52:11;;;;;;;1.10;1.10;;;12.60;99.90;;;;;;7374246;19;21293;-74
2022/08/07 00:54:37;;;;;;;2.17;1.20;;;12.50;99.90;;;;;;7367055;19;20324;-74
2022/08/07 00:57:04;;;;;;;0.90;0.90;;;12.40;99.90;;;;;;7375169;19;20462;-74
2022/08/07 00:59:30;;;;;;;0.80;0.80;;;12.40;99.90;;;;;;7370625;19;20321;-74
2022/08/07 01:01:57;;;;;;;0.90;0.90;;;12.40;99.90;;;;;;7372116;19;21485;-74
2022/08/07 01:04:22;;;;;;;1.17;1.10;;;12.40;99.90;;;;;;7370995;19;20344;-74
2022/08/07 01:06:48;;;;;;;1.00;1.00;;;12.30;99.90;;;;;;7367849;19;20325;-74
2022/08/07 01:09:14;;;;;;;0.80;0.80;;;12.40;99.90;;;;;;7373159;19;21443;-74
2022/08/07 01:11:39;;;;;;;0.77;0.77;;;12.20;99.90;;;;;;7370019;19;20341;-74
2022/08/07 01:14:05;;;;;;;0.97;0.90;;;12.20;99.90;;;;;;7370134;19;20304;-74
2022/08/07 01:16:31;;;;;;;1.00;1.00;;;12.10;99.90;;;;;;7371228;19;20322;-74
2022/08/07 01:18:58;;;;;;;1.05;1.05;;;12.10;99.90;;;;;;7370750;19;20304;-74
2022/08/07 01:21:24;;;;;;;1.02;0.90;;;12.00;99.90;;;;;;7376642;19;20920;-74
2022/08/07 01:23:53;;;;;;;0.90;0.90;;;12.00;99.90;;;;;;7369313;19;20349;-74
2022/08/07 01:26:22;;;;;;;1.00;1.00;;;12.00;99.90;;;;;;7371340;19;20383;-74
2022/08/07 01:28:49;;;;;;;1.05;1.00;;;12.00;99.90;;;;;;7375116;19;20329;-74
2022/08/07 01:31:20;;;;;;;1.00;1.00;;;12.00;99.90;;;;;;7368995;19;20353;-74
2022/08/07 01:33:48;;;;;;;1.10;1.00;;;11.90;99.90;;;;;;7369840;19;21448;-74
2022/08/07 01:36:14;;;;;;;0.80;0.80;;;11.90;99.90;;;;;;7370378;19;21279;-74
2022/08/07 01:38:41;;;;;;;1.00;1.00;;;11.80;99.90;;;;;;7373899;19;20329;-74
2022/08/07 01:41:15;;;;;;;0.90;0.90;;;11.80;99.90;;;;;;7369783;19;20339;-74
2022/08/07 01:43:41;;;;;;;0.82;0.82;;;11.70;99.90;;;;;;7376661;19;20297;-74
2022/08/07 01:46:07;;;;;;;0.90;0.90;;;11.60;99.90;;;;;;7375154;19;20852;-74
2022/08/07 01:48:37;;;;;;;0.80;0.80;;;11.60;99.90;;;;;;7371885;19;20425;-74
2022/08/07 01:51:07;;;;;;;0.90;0.90;;;11.60;99.90;;;;;;7371975;19;20320;-74
2022/08/07 01:53:34;;;;;;;1.50;1.00;;;11.70;99.90;;;;;;7372127;19;20859;-74
2022/08/07 01:56:25;;;;;;;1.00;1.00;;;11.70;99.90;;;;;;7368109;19;20328;-74
2022/08/07 01:59:14;;;;;;;0.90;0.90;;;11.60;99.90;;;;;;7268110;19;2004258;-74
2022/08/07 02:01:45;;;;;;;0.85;0.85;;;11.60;99.90;;;;;;7263517;19;2004242;-74
2022/08/07 02:04:17;;;;;;;0.90;0.90;;;11.50;99.90;;;;;;7365884;19;21262;-74
2022/08/07 02:06:48;;;;;;;0.90;0.90;;;11.50;99.90;;;;;;7367282;19;20951;-74
2022/08/07 02:09:16;;;;;;;2.10;1.00;;;11.50;99.90;;;;;;7369892;19;20329;-74
2022/08/07 02:11:44;;;;;;;0.82;0.82;;;11.50;99.90;;;;;;7369489;19;20313;-74
2022/08/07 02:14:10;;;;;;;0.90;0.90;;;11.50;99.90;;;;;;7364146;19;20328;-74
2022/08/07 02:16:36;;;;;;;0.90;0.90;;;11.30;99.90;;;;;;7375625;19;20432;-74
2022/08/07 02:19:03;;;;;;;1.00;1.00;;;11.30;99.90;;;;;;7372609;19;20345;-74
2022/08/07 02:21:29;;;;;;;1.20;1.10;;;11.20;99.90;;;;;;7370415;19;20348;-74
2022/08/07 02:23:55;;;;;;;1.10;1.10;;;11.10;99.90;;;;;;7370591;19;21261;-74
2022/08/07 02:26:21;;;;;;;1.00;1.00;;;11.10;99.90;;;;;;7369050;19;20362;-74
2022/08/07 02:28:49;;;;;;;1.15;1.10;;;11.10;99.90;;;;;;7371977;19;20336;-74
2022/08/07 02:31:15;;;;;;;1.10;1.00;;;11.20;99.90;;;;;;7369489;19;20654;-74
2022/08/07 02:33:41;;;;;;;1.00;1.00;;;11.20;99.90;;;;;;7364746;19;20328;-74
2022/08/07 02:36:07;;;;;;;1.00;1.00;;;11.20;99.90;;;;;;7369454;19;20435;-74
2022/08/07 02:38:34;;;;;;;1.17;1.17;;;11.20;99.90;;;;;;7368936;19;20312;-74
2022/08/07 02:41:02;;;;;;;1.20;1.20;;;11.20;99.90;;;;;;7370180;19;20317;-74
2022/08/07 02:43:29;;;;;;;1.10;1.10;;;11.20;99.90;;;;;;7367524;19;20323;-74
2022/08/07 02:45:56;;;;;;;0.90;0.90;;;11.20;99.90;;;;;;7366374;19;20673;-74
2022/08/07 02:48:24;;;;;;;1.10;1.10;;;11.10;99.90;;;;;;7370281;19;20421;-73
2022/08/07 02:50:52;;;;;;;0.80;0.80;;;11.10;99.90;;;;;;7368799;19;20367;-74
2022/08/07 02:53:20;;;;;;;0.95;0.95;;;11.00;99.90;;;;;;7369209;19;20335;-74
2022/08/07 02:55:48;;;;;;;1.00;1.00;;;11.00;99.90;;;;;;7365010;19;20407;-74
2022/08/07 02:58:16;;;;;;;1.10;1.10;;;10.90;99.90;;;;;;7366844;19;20305;-74
2022/08/07 03:00:42;;;;;;;0.90;0.90;;;10.80;99.90;;;;;;7368114;19;20550;-74
2022/08/07 03:03:09;;;;;;;0.90;0.90;;;10.90;99.90;;;;;;7367925;19;20329;-74
2022/08/07 03:05:38;;;;;;;0.90;0.90;;;10.70;99.90;;;;;;7257381;19;2004242;-74
2022/08/07 03:08:06;;;;;;;0.90;0.90;;;10.70;99.90;;;;;;7368108;19;20396;-74
2022/08/07 03:10:31;;;;;;;1.33;1.23;;;10.60;99.90;;;;;;7367921;19;20315;-74
2022/08/07 03:12:57;;;;;;;0.82;0.82;;;10.60;99.90;;;;;;7372090;19;20340;-74
2022/08/07 03:15:23;;;;;;;1.10;1.00;;;10.50;99.90;;;;;;7370626;19;20325;-74
2022/08/07 03:17:49;;;;;;;1.00;1.00;;;10.50;99.90;;;;;;7370071;19;20317;-74
2022/08/07 03:20:15;;;;;;;1.02;1.02;;;10.50;99.90;;;;;;7378509;19;20321;-73
2022/08/07 03:22:41;;;;;;;1.10;1.10;;;10.40;99.90;;;;;;7376016;19;20664;-74
2022/08/07 03:25:07;;;;;;;1.00;1.00;;;10.50;99.90;;;;;;7363210;19;20318;-74
2022/08/07 03:27:41;;;;;;;1.00;1.00;;;10.50;99.90;;;;;;7267535;19;2006019;-74
2022/08/07 03:30:08;;;;;;;1.30;1.20;;;10.50;99.90;;;;;;7374417;19;21487;-74
2022/08/07 03:32:39;;;;;;;1.08;1.08;;;10.50;99.90;;;;;;7375765;19;20305;-74
2022/08/07 03:35:08;;;;;;;1.30;1.07;;;10.50;99.90;;;;;;7373188;19;20812;-74
2022/08/07 03:37:35;;;;;;;0.98;0.98;;;10.50;99.90;;;;;;7375465;19;21239;-74
2022/08/07 03:40:01;;;;;;;0.90;0.90;;;10.40;99.90;;;;;;7372978;19;20384;-74
2022/08/07 03:42:27;;;;;;;0.90;0.90;;;10.40;99.90;;;;;;7376918;19;20341;-74
2022/08/07 03:44:53;;;;;;;0.93;0.93;;;10.30;99.90;;;;;;7371771;19;21372;-74
2022/08/07 03:47:18;;;;;;;1.20;1.20;;;10.20;99.90;;;;;;7377812;19;20332;-73
2022/08/07 03:49:46;;;;;;;1.15;1.15;;;10.20;99.90;;;;;;7372213;19;20337;-73
2022/08/07 03:52:12;;;;;;;1.23;1.13;;;10.20;99.90;;;;;;7374589;19;20312;-72
2022/08/07 03:54:37;;;;;;;0.97;0.97;;;10.30;99.90;;;;;;7369302;19;20341;-73
2022/08/07 03:57:06;;;;;;;1.20;1.10;;;10.30;99.90;;;;;;7319614;19;20376;-73
2022/08/07 03:59:32;;;;;;;0.93;0.93;;;10.40;99.90;;;;;;7361926;19;20398;-72
2022/08/07 04:01:57;;;;;;;1.05;1.05;;;10.30;99.90;;;;;;7375714;19;20361;-73
2022/08/07 04:04:23;;;;;;;1.13;1.10;;;10.30;99.90;;;;;;7373225;19;20437;-72
2022/08/07 04:06:52;;;;;;;1.00;1.00;;;10.40;99.90;;;;;;7373392;19;20356;-71
2022/08/07 04:09:20;;;;;;;1.00;1.00;;;10.40;99.90;;;;;;7363484;19;20329;-73
2022/08/07 04:11:46;;;;;;;1.00;1.00;;;10.40;99.90;;;;;;7369491;19;20959;-72
2022/08/07 04:14:12;;;;;;;1.10;1.10;;;10.50;99.90;;;;;;7369121;19;20324;-73
2022/08/07 04:16:37;;;;;;;2.40;1.00;;;10.40;99.90;;;;;;7373485;19;20780;-72
2022/08/07 04:19:03;;;;;;;1.48;1.23;;;10.40;99.90;;;;;;7371212;19;20693;-72
2022/08/07 04:21:30;;;;;;;1.10;1.10;;;10.40;99.90;;;;;;7371433;19;20317;-73
2022/08/07 04:23:56;;;;;;;1.20;1.20;;;10.40;99.90;;;;;;7371249;19;23674;-73
2022/08/07 04:26:22;;;;;;;1.10;1.10;;;10.50;99.90;;;;;;7371230;19;20339;-73
2022/08/07 04:28:48;;;;;;;1.20;1.20;;;10.50;99.90;;;;;;7365829;19;20466;-72
2022/08/07 04:31:14;;;;;;;1.52;1.42;;;10.50;99.90;;;;;;7368615;19;20408;-72
2022/08/07 04:33:39;;;;;;;1.30;1.20;;;10.60;99.90;;;;;;7367571;19;20321;-73
2022/08/07 04:36:07;;;;;;;1.30;1.20;;;10.60;99.90;;;;;;7369847;19;21135;-73
2022/08/07 04:38:34;;;;;;;1.30;1.20;;;10.70;99.90;;;;;;7368388;19;20399;-73
2022/08/07 04:41:00;;;;;;;1.15;1.10;;;10.70;99.90;;;;;;5967100;19;10001087;-75
2022/08/07 04:43:35;;;;;;;1.40;1.30;;;10.80;99.90;;;;;;6054093;19;10001599;-72
2022/08/07 04:46:19;;;;;;;1.85;1.30;;;10.90;99.90;;;;;;6039311;19;10001410;-72
2022/08/07 04:48:48;;;;;;;1.30;1.20;;;11.00;99.90;;;;;;7268190;19;2004624;-76
2022/08/07 04:51:25;;;;;;;1.50;1.40;;;11.10;99.90;;;;;;7372231;19;20337;-76
2022/08/07 04:53:56;;;;;;;3.13;1.20;;;11.10;99.90;;;;;;7369255;19;20329;-75
2022/08/07 04:56:45;;;;;;;1.27;1.13;;;11.30;99.90;;;;;;7376038;19;20341;-75
2022/08/07 04:59:17;;;;;;;1.45;1.20;;;11.40;99.90;;;;;;7263410;19;2004542;-75
2022/08/07 05:02:04;;;;;;;1.17;1.17;;;11.50;99.90;;;;;;7365506;19;20335;-76
2022/08/07 05:04:32;;;;;;;1.70;1.30;;;11.60;99.90;;;;;;7371212;19;20321;-77
2022/08/07 05:10:03;;;;;;;1.40;1.30;;;11.80;99.90;;;;;;7368961;19;20312;-74
2022/08/07 05:12:48;;;;;;;2.70;1.20;;;11.90;99.90;;;;;;7276562;19;2004130;-74
2022/08/07 05:15:18;;;;;;;1.80;1.20;;;12.00;99.90;;;;;;7275148;19;2004366;-74
2022/08/07 05:17:50;;;;;;;1.10;1.10;;;12.10;99.90;;;;;;7377572;19;20416;-74
2022/08/07 05:20:20;;;;;;;2.10;1.33;;;12.20;99.90;;;;;;7381332;19;20340;-74
2022/08/07 05:22:46;;;;;;;1.33;1.23;;;12.40;99.90;;;;;;7380772;19;20853;-74
2022/08/07 05:25:13;;;;;;;1.42;1.23;;;12.40;99.90;;;;;;7374117;19;20697;-75
2022/08/07 05:27:38;;;;;;;1.20;1.10;;;12.60;99.90;;;;;;7382070;19;20316;-74
2022/08/07 05:30:04;;;;;;;3.90;1.40;;;12.70;99.90;;;;;;7382077;19;20356;-74
2022/08/07 05:32:30;;;;;;;1.40;1.30;;;12.70;99.90;;;;;;7379158;19;20804;-75
2022/08/07 05:34:55;;;;;;;1.30;1.20;;;12.80;99.90;;;;;;7381043;19;20461;-74
2022/08/07 05:37:21;;;;;;;1.17;1.17;;;12.90;99.90;;;;;;7378234;19;20313;-74
2022/08/07 05:39:54;;;;;;;1.40;1.30;;;13.10;99.90;;;;;;7381241;19;20366;-74
2022/08/07 05:42:20;;;;;;;1.10;1.10;;;13.20;99.90;;;;;;7379331;19;20735;-74
2022/08/07 05:44:45;;;;;;;1.50;1.40;;;13.30;99.90;;;;;;7378368;19;20341;-74
2022/08/07 05:47:11;;;;;;;1.33;1.23;;;13.40;99.90;;;;;;7379767;19;20354;-74
2022/08/07 05:49:37;;;;;;;1.63;1.47;;;13.50;99.90;;;;;;7380843;19;20411;-74
2022/08/07 05:52:03;;;;;;;1.60;1.43;;;13.60;99.90;;;;;;7380878;19;20312;-74
2022/08/07 05:54:30;;;;;;;1.42;1.30;;;13.70;99.90;;;;;;7376197;19;20341;-74
2022/08/07 05:56:56;;;;;;;2.00;1.80;;;13.90;99.90;;;;;;7380171;19;20336;-74
2022/08/07 05:59:22;;;;;;;1.75;1.65;;;14.00;99.90;;;;;;7380328;19;20329;-74
2022/08/07 06:01:54;;;;;;;2.78;1.88;;;14.10;99.90;;;;;;7378627;19;20348;-74
2022/08/07 06:04:20;;;;;;;2.30;1.30;;;14.20;99.90;;;;;;7379985;19;20315;-74
2022/08/07 06:10:14;;;;;;;1.67;1.50;;;14.40;99.90;;;;;;7168266;19;2004502;-74
2022/08/07 06:12:40;;;;;;;1.30;1.20;;;14.70;99.90;;;;;;7377239;19;20336;-74
2022/08/07 06:15:07;;;;;;;1.67;1.50;;;14.60;99.90;;;;;;7376013;19;20324;-74
2022/08/07 06:17:33;;;;;;;3.70;1.50;;;14.80;99.90;;;;;;7379317;19;20315;-74
2022/08/07 06:20:00;;;;;;;1.45;1.35;;;14.90;99.90;;;;;;7377308;19;20317;-74
2022/08/07 06:22:26;;;;;;;1.53;1.37;;;15.00;99.90;;;;;;7379576;19;20356;-74
2022/08/07 06:24:58;;;;;;;1.77;1.50;;;15.20;99.90;;;;;;7377745;19;20339;-75
2022/08/07 06:27:25;;;;;;;1.40;1.30;;;15.30;99.90;;;;;;7378497;19;20437;-75
2022/08/07 06:29:51;;;;;;;4.20;1.42;;;15.40;99.90;;;;;;7379271;19;20345;-74
2022/08/07 06:32:17;;;;;;;1.90;1.30;;;15.60;99.90;;;;;;7376473;19;20312;-74
2022/08/07 06:34:43;;;;;;;1.40;1.30;;;15.80;99.90;;;;;;7376330;19;20336;-74
2022/08/07 06:37:08;;;;;;;2.20;1.40;;;16.00;99.90;;;;;;7376718;19;20366;-75
2022/08/07 06:39:37;;;;;;;3.92;1.50;;;16.10;99.90;;;;;;7377560;19;20313;-75
2022/08/07 06:42:25;;;;;;;3.40;1.60;;;16.20;99.90;;;;;;7378453;19;20321;-75
2022/08/07 06:45:08;;;;;;;1.80;1.65;;;16.50;99.90;;;;;;7276211;19;2004236;-74
2022/08/07 06:47:33;;;;;;;1.75;1.50;;;16.60;99.90;;;;;;7376209;19;20321;-75
2022/08/07 06:49:59;;;;;;;2.63;1.80;;;16.70;99.90;;;;;;7377722;19;20316;-75
2022/08/07 06:52:35;;;;;;;1.88;1.63;;;16.90;99.90;;;;;;7378151;19;20308;-75
2022/08/07 06:55:24;;;;;;;1.52;1.42;;;17.00;99.90;;;;;;7383297;19;20487;-74
2022/08/07 06:57:51;;;;;;;1.20;1.20;;;17.20;99.90;;;;;;7280161;19;2004330;-74
2022/08/07 07:00:20;;;;;;;2.13;1.40;;;17.40;99.90;;;;;;7384455;19;20366;-75
2022/08/07 07:02:46;;;;;;;1.50;1.40;;;17.60;99.90;;;;;;7387088;19;20348;-74
2022/08/07 07:05:12;;;;;;;1.85;1.40;;;17.80;99.90;;;;;;7384409;19;20408;-75
2022/08/07 07:07:37;;;;;;;2.93;1.70;;;17.90;99.90;;;;;;7383837;19;20317;-74
2022/08/07 07:10:03;;;;;;;1.60;1.50;;;18.00;99.90;;;;;;7383838;19;20308;-75
2022/08/07 07:12:47;;;;;;;1.40;1.30;;;18.20;99.90;;;;;;7386102;19;22994;-74
2022/08/07 07:15:23;;;;;;;1.73;1.58;;;18.40;99.90;;;;;;7283459;19;2013751;-74
2022/08/07 07:18:13;;;;;;;2.25;1.65;;;18.50;99.90;;;;;;7383184;19;20836;-74
2022/08/07 07:20:55;;;;;;;1.70;1.60;;;18.60;99.90;;;;;;7385785;19;20337;-75
2022/08/07 07:23:20;;;;;;;1.67;1.58;;;18.80;99.90;;;;;;7278579;19;2019794;-75
2022/08/07 07:25:46;;;;;;;2.65;1.42;;;18.80;99.90;;;;;;7382177;19;20347;-75
2022/08/07 07:28:31;;;;;;;2.35;1.65;;;18.90;99.90;;;;;;7380050;19;20675;-75
2022/08/07 07:30:59;;;;;;;1.43;1.40;;;19.00;99.90;;;;;;7380203;19;20363;-75
2022/08/07 07:33:25;;;;;;;4.13;1.80;;;19.20;99.90;;;;;;7380655;19;20348;-75
2022/08/07 07:35:51;;;;;;;2.90;1.88;;;19.40;99.90;;;;;;7379546;19;20361;-75
2022/08/07 07:38:18;;;;;;;2.50;1.50;;;19.60;99.90;;;;;;7378618;19;20341;-75
2022/08/07 07:40:43;;;;;;;2.55;1.67;;;19.70;99.90;;;;;;7381498;19;20957;-74
2022/08/07 07:43:09;;;;;;;2.00;1.80;;;20.00;99.90;;;;;;7385616;19;20376;-77
2022/08/07 07:45:34;;;;;;;2.60;1.70;;;20.20;99.90;;;;;;7385353;19;21195;-77
2022/08/07 07:48:02;;;;;;;3.35;1.60;;;20.30;99.90;;;;;;7384289;19;20324;-75
2022/08/07 07:50:28;;;;;;;2.60;2.30;;;20.40;99.90;;;;;;7384592;19;20361;-75
2022/08/07 07:52:54;;;;;;;1.95;1.85;;;20.50;99.90;;;;;;7384352;19;20337;-74
2022/08/07 07:55:19;;;;;;;1.83;1.43;;;20.60;99.90;;;;;;7385439;19;20333;-76
2022/08/07 07:57:46;;;;;;;1.40;1.30;;;20.60;99.90;;;;;;7384391;19;20666;-75
2022/08/07 08:00:13;;;;;;;2.03;1.23;;;20.70;99.90;;;;;;7383190;19;20681;-75
2022/08/07 08:02:40;;;;;;;2.08;1.20;;;20.60;99.80;;;;;;7384093;19;20346;-75
2022/08/07 08:05:06;;;;;;;1.50;1.40;;;20.90;99.90;;;;;;7379141;19;20312;-74
2022/08/07 08:07:32;;;;;;;1.60;1.50;;;21.00;98.10;;;;;;7383103;19;20293;-74
2022/08/07 08:09:57;;;;;;;1.20;1.20;;;21.20;97.90;;;;;;7384313;19;20345;-74
2022/08/07 08:12:23;;;;;;;3.00;1.37;;;21.20;96.80;;;;;;7383607;19;20362;-75
2022/08/07 08:14:49;;;;;;;1.60;1.50;;;21.30;95.20;;;;;;7382963;19;20356;-76
2022/08/07 08:17:14;;;;;;;1.07;1.07;;;21.30;94.40;;;;;;7382700;19;20413;-73
2022/08/07 08:19:40;;;;;;;1.73;1.63;;;21.50;94.50;;;;;;7383661;19;20316;-74
2022/08/07 08:27:35;;;;;;;2.70;1.60;;;21.90;95.40;;;;;;7383180;19;21033;-74
2022/08/07 08:30:06;;;;;;;1.67;1.57;;;22.10;93.70;;;;;;7385332;19;20328;-75
2022/08/07 08:32:35;;;;;;;2.22;1.80;;;22.40;93.20;;;;;;7383120;19;20348;-74
2022/08/07 08:35:00;;;;;;;1.90;1.48;;;22.50;91.10;;;;;;7382571;19;20309;-74
2022/08/07 08:37:27;;;;;;;1.30;1.30;;;22.70;92.50;;;;;;7383532;19;20348;-76
2022/08/07 08:39:53;;;;;;;1.60;1.40;;;22.80;92.60;;;;;;7384451;19;20453;-75
2022/08/07 08:42:40;;;;;;;1.83;1.35;;;22.90;91.50;;;;;;7383073;19;20397;-74
2022/08/07 08:45:18;;;;;;;2.72;1.60;;;22.90;90.90;;;;;;7381358;19;20312;-74
2022/08/07 08:48:02;;;;;;;9.05;2.50;;;23.00;89.40;;;;;;7276864;19;2005970;-74
2022/08/07 08:51:07;;;;;;;1.42;1.33;;;23.20;88.20;;;;;;7381392;19;20925;-74
2022/08/07 08:54:18;;;;;;;1.30;1.20;;;23.30;87.80;;;;;;7276033;19;2004386;-74
2022/08/07 08:56:45;;;;;;;2.33;1.30;;;23.50;86.80;;;;;;7176438;19;2004307;-74
2022/08/07 08:59:26;;;;;;;1.37;1.27;;;23.70;86.70;;;;;;7383397;19;20427;-73
2022/08/07 09:02:14;;;;;;;2.20;1.40;;;23.60;84.20;;;;;;7380982;19;20947;-73
2022/08/07 09:04:44;;;;;;;1.27;1.20;;;23.70;85.60;;;;;;7381105;19;20977;-73
2022/08/07 09:07:33;;;;;;;1.10;1.10;;;23.90;86.00;;;;;;7381966;19;20374;-73
2022/08/07 09:10:06;;;;;;;1.10;1.10;;;24.10;84.50;;;;;;7274805;19;2004550;-74
2022/08/07 09:12:49;;;;;;;1.00;1.00;;;24.20;82.20;;;;;;7380896;19;20300;-74
2022/08/07 09:15:26;;;;;;;1.40;1.30;;;24.30;84.10;;;;;;7277814;19;2019950;-73
2022/08/07 09:18:29;;;;;;;1.48;1.10;;;24.00;82.80;;;;;;7382561;19;20659;-73
2022/08/07 09:21:27;;;;;;;2.53;1.70;;;23.80;79.70;;;;;;7278823;19;2005520;-74
2022/08/07 09:24:04;;;;;;;2.30;1.13;;;23.60;80.10;;;;;;7278359;19;2004506;-73
2022/08/07 09:26:56;;;;;;;1.13;1.00;;;23.60;79.00;;;;;;7378473;19;20976;-73
2022/08/07 09:29:32;;;;;;;2.15;1.23;;;23.60;78.20;;;;;;7276784;19;2004407;-76
2022/08/07 09:32:02;;;;;;;1.00;1.00;;;23.80;80.00;;;;;;7377249;19;20398;-73
2022/08/07 09:35:01;;;;;;;1.00;1.00;;;24.20;79.90;;;;;;7377414;19;20312;-73
2022/08/07 09:37:36;;;;;;;1.00;1.00;;;24.50;77.60;;;;;;7276504;19;2004604;-73
2022/08/07 09:40:24;;;;;;;0.98;0.98;;;24.90;80.10;;;;;;7379801;19;20314;-74
2022/08/07 09:43:12;;;;;;;1.80;1.10;;;25.10;77.00;;;;;;7276472;19;2004479;-73
2022/08/07 09:45:43;;;;;;;0.95;0.95;;;25.40;73.80;;;;;;7378418;19;20297;-73
2022/08/07 09:48:35;;;;;;;1.33;1.10;;;25.70;75.30;;;;;;7376817;19;20340;-74
2022/08/07 09:51:21;;;;;;;0.90;0.90;;;25.70;72.10;;;;;;7275399;19;2004436;-73
2022/08/07 09:53:46;;;;;;;0.90;0.90;;;25.60;67.50;;;;;;7273151;19;2004783;-74
2022/08/07 09:56:33;;;;;;;0.90;0.90;;;25.70;70.00;;;;;;7376165;19;20355;-73
2022/08/07 09:59:05;;;;;;;1.00;1.00;;;25.80;73.30;;;;;;7377678;19;20367;-74
2022/08/07 10:01:39;;;;;;;1.00;1.00;;;26.10;70.60;;;;;;7377022;19;20867;-74
2022/08/07 10:04:27;;;;;;;1.35;0.90;;;26.10;64.20;;;;;;7377353;19;20324;-74
2022/08/07 10:07:30;;;;;;;0.80;0.80;;;26.30;70.50;;;;;;7276022;19;2004505;-74
2022/08/07 10:10:05;;;;;;;1.90;0.90;;;26.70;69.10;;;;;;7273588;19;2020102;-74
2022/08/07 10:12:43;;;;;;;1.00;1.00;;;26.60;65.00;;;;;;7376950;19;20754;-74
2022/08/07 10:15:22;;;;;;;0.90;0.90;;;26.00;65.00;;;;;;7377048;19;20307;-73
2022/08/07 10:17:58;;;;;;;0.93;0.93;;;25.90;67.10;;;;;;7272276;19;2020154;-74
2022/08/07 10:20:33;;;;;;;1.20;1.07;;;25.70;67.40;;;;;;7375773;19;20345;-74
2022/08/07 10:23:10;;;;;;;3.22;3.03;;;25.50;68.60;;;;;;7375520;19;21010;-74
2022/08/07 10:26:01;;;;;;;7.20;6.57;;;25.30;67.60;;;;;;7375504;19;20344;-74
2022/08/07 10:28:40;;;;;;;47.83;42.95;;;25.10;67.70;;;;;;7272529;19;2004650;-73
2022/08/07 10:31:44;;;;;;;5.03;4.53;;;24.90;65.80;;;;;;7375540;19;20308;-74
2022/08/07 10:34:53;;;;;;;17.53;9.70;;;24.80;66.40;;;;;;7170017;19;2004568;-74
2022/08/07 10:37:53;;;;;;;1.40;1.30;;;25.40;66.70;;;;;;7170772;19;2004448;-74
2022/08/07 10:40:28;;;;;;;1.00;1.00;;;25.80;65.80;;;;;;7273062;19;2004377;-73
2022/08/07 10:43:01;;;;;;;1.30;1.17;;;26.00;66.00;;;;;;7375938;19;20938;-74
2022/08/07 10:45:47;;;;;;;1.90;1.00;;;25.70;64.30;;;;;;7374443;19;20388;-73
2022/08/07 10:48:45;;;;;;;0.82;0.82;;;25.90;66.80;;;;;;7270803;19;2004491;-73
2022/08/07 10:51:19;;;;;;;1.90;1.17;;;26.30;66.50;;;;;;7271405;19;2004302;-73
2022/08/07 10:54:19;;;;;;;0.93;0.93;;;26.90;65.90;;;;;;7374418;19;20349;-74
2022/08/07 10:57:14;;;;;;;0.90;0.90;;;27.40;65.50;;;;;;7274093;19;2004471;-73
2022/08/07 11:00:03;;;;;;;0.90;0.90;;;28.00;62.90;;;;;;7373912;19;20328;-74
2022/08/07 11:02:31;;;;;;;1.85;1.10;;;27.60;58.50;;;;;;7272556;19;2004286;-74
2022/08/07 11:05:15;;;;;;;1.27;1.00;;;28.00;66.50;;;;;;7373757;19;20344;-74
2022/08/07 11:08:09;;;;;;;0.90;0.90;;;28.10;61.50;;;;;;7376430;19;22483;-74
2022/08/07 11:10:43;;;;;;;1.10;1.00;;;28.00;59.10;;;;;;7272625;19;2010290;-74
2022/08/07 11:13:30;;;;;;;3.00;1.00;;;28.30;58.20;;;;;;7373129;19;20308;-74
2022/08/07 11:15:58;;;;;;;0.90;0.90;;;28.60;59.20;;;;;;7280431;19;2019695;-75
2022/08/07 11:18:48;;;;;;;0.95;0.90;;;28.70;58.80;;;;;;7385796;19;20329;-73
2022/08/07 11:21:21;;;;;;;0.90;0.90;;;28.90;59.90;;;;;;7284772;19;2004478;-73
2022/08/07 11:24:05;;;;;;;1.30;1.00;;;29.10;55.90;;;;;;7375156;19;20348;-74
2022/08/07 11:26:39;;;;;;;1.83;1.05;;;29.40;57.30;;;;;;7371403;19;20333;-74
2022/08/07 11:29:27;;;;;;;1.10;1.00;;;29.80;54.50;;;;;;7373090;19;20333;-74
2022/08/07 11:31:59;;;;;;;1.10;1.00;;;29.80;53.50;;;;;;7267929;19;2004378;-73
2022/08/07 11:34:48;;;;;;;0.90;0.90;;;30.10;55.90;;;;;;7368215;19;20345;-75
2022/08/07 11:37:25;;;;;;;0.88;0.88;;;30.40;52.30;;;;;;7268783;19;2004555;-75
2022/08/07 11:39:58;;;;;;;1.50;0.93;;;30.90;54.60;;;;;;7373439;19;20356;-75
2022/08/07 11:42:24;;;;;;;1.80;1.10;;;31.30;53.90;;;;;;7378768;19;20360;-74
2022/08/07 11:45:28;;;;;;;1.80;1.00;;;31.40;51.00;;;;;;7379268;19;20966;-74
2022/08/07 11:48:03;;;;;;;0.90;0.90;;;31.40;52.80;;;;;;7275306;19;2004399;-74
2022/08/07 11:50:48;;;;;;;1.05;0.95;;;32.10;54.10;;;;;;7380031;19;20336;-74
2022/08/07 11:53:45;;;;;;;0.95;0.95;;;31.60;47.30;;;;;;7274887;19;2004500;-75
2022/08/07 11:56:30;;;;;;;0.90;0.80;;;31.60;48.30;;;;;;7274362;19;2020066;-74
2022/08/07 11:59:19;;;;;;;0.95;0.95;;;31.50;46.90;;;;;;7375567;19;20340;-74
2022/08/07 12:01:55;;;;;;;0.95;0.95;;;31.90;49.20;;;;;;7273393;19;2019875;-74
2022/08/07 12:04:29;;;;;;;1.25;1.00;;;32.10;47.80;;;;;;7375357;19;21681;-74
2022/08/07 12:07:09;;;;;;;0.83;0.80;;;32.10;47.70;;;;;;7377899;19;21069;-74
2022/08/07 12:09:50;;;;;;;1.13;0.90;;;32.70;47.00;;;;;;7376738;19;20532;-74
2022/08/07 12:12:27;;;;;;;1.27;1.08;;;33.10;45.30;;;;;;7275000;19;2004776;-74
2022/08/07 12:15:19;;;;;;;0.90;0.90;;;33.40;45.50;;;;;;7374858;19;20341;-75
2022/08/07 12:17:54;;;;;;;2.97;0.90;;;33.60;47.20;;;;;;7272924;19;2012596;-75
2022/08/07 12:20:42;;;;;;;1.10;1.00;;;33.20;43.30;;;;;;7378550;19;20339;-75
2022/08/07 12:23:28;;;;;;;1.10;1.10;;;33.10;47.00;;;;;;7376114;19;20331;-75
2022/08/07 12:26:02;;;;;;;1.00;1.00;;;33.10;43.50;;;;;;7275817;19;2004478;-75
2022/08/07 12:28:42;;;;;;;0.95;0.95;;;33.40;44.60;;;;;;7375189;19;20353;-75
2022/08/07 12:31:12;;;;;;;1.30;1.00;;;33.10;45.70;;;;;;7377028;19;20333;-75
2022/08/07 12:33:37;;;;;;;1.03;1.00;;;33.60;46.00;;;;;;7374790;19;21166;-74
2022/08/07 12:36:03;;;;;;;1.10;1.00;;;34.00;45.00;;;;;;7376340;19;20387;-74
2022/08/07 12:38:29;;;;;;;3.85;1.10;;;34.00;46.30;;;;;;7378238;19;20320;-75
2022/08/07 12:40:54;;;;;;;1.45;1.05;;;34.20;42.10;;;;;;7376706;19;20345;-75
2022/08/07 12:43:22;;;;;;;1.08;1.00;;;34.20;40.90;;;;;;7376465;19;20404;-74
2022/08/07 12:45:57;;;;;;;1.30;0.88;;;33.90;41.20;;;;;;7375843;19;20985;-75
2022/08/07 12:48:38;;;;;;;1.60;0.90;;;34.50;45.90;;;;;;7376600;19;20329;-75
2022/08/07 12:51:09;;;;;;;0.90;0.90;;;34.20;41.60;;;;;;7377754;19;20312;-75
2022/08/07 12:53:39;;;;;;;0.80;0.80;;;34.40;43.60;;;;;;7376070;19;20336;-75
2022/08/07 12:56:26;;;;;;;4.75;1.02;;;34.60;42.10;;;;;;7376963;19;20336;-75
2022/08/07 12:58:51;;;;;;;1.10;1.00;;;34.60;41.50;;;;;;7275983;19;2004361;-75
2022/08/07 13:01:34;;;;;;;1.00;1.00;;;34.60;42.00;;;;;;7375778;19;20367;-75
2022/08/07 13:04:37;;;;;;;0.90;0.90;;;33.70;39.00;;;;;;7375840;19;20337;-76
2022/08/07 13:07:32;;;;;;;1.20;0.90;;;34.00;41.30;;;;;;7276711;19;2004467;-75
2022/08/07 13:10:11;;;;;;;0.90;0.90;;;33.70;41.10;;;;;;7274443;19;2004436;-75
2022/08/07 13:13:27;;;;;;;0.90;0.90;;;33.40;40.20;;;;;;7377802;19;20858;-76
2022/08/07 13:16:16;;;;;;;1.73;0.95;;;33.80;43.00;;;;;;7170100;19;2004886;-76
2022/08/07 13:19:06;;;;;;;0.87;0.87;;;34.30;42.20;;;;;;7272156;19;2004306;-76
2022/08/07 13:21:35;;;;;;;1.90;1.10;;;34.90;41.80;;;;;;7374458;19;20321;-75
2022/08/07 13:24:25;;;;;;;0.98;0.98;;;35.20;38.10;;;;;;7374871;19;20372;-75